Pilot information for Malakal Airport

[ general | frequencies | runways | weather | notam | navaids | links ]

Caution: This page displays community-maintained data: information may be missing, incorrect, or out of date. Please confirm with an official source before making travel plans.

General information for Malakal Airport

Airport codes: MAK HSSM
Type: regional airport
Scheduled airline service: yes
Serves: Malakal, Upper Nile, South Sudan
Latitude: 9.558970 | 9 33.538227 N | N09 33 32
Longitude: 31.652201 | 31 39.132042 E | E031 39 07
Field elevation: 1,291 ft/393 m MSL
Magnetic variation: 1.5°E

Radio communication frequencies for Malakal Airport

INFO: 118.2 MHz

Members can add and update frequencies.

Runways at Malakal Airport

05/23
6,562 x 125 ft (2,000 x 38 m) — paved — not lighted

Members can add and update runway information.

Aviation weather for Malakal Airport

Current conditions (METAR) for Malakal Airport

Closest report is Debra Marcos Airport, 361.8 nm (670.0 km) E. Retrieved 2013/01/18 12:00:

HADM 181200Z 09016KT 9999 SCT023 28/18 Q1016

Forecast (TAF) for Malakal Airport

Retrieved 2014/04/16 12:00:

TAF HSSM 161000Z 1612/1718 36010G20KT 9999 SCT140 
      TEMPO 1615/1621 6000

Notices to Airmen (NOTAM) for Malakal Airport

Please confirm all NOTAMs at the original source! These are for information only, and may be wrong, out of date, or incomplete.

We have no current NOTAMs for Malakal Airport. Please check with an official source to confirm.